Time;durP1;ratioP1;P1;durP2;ratioP2;P2;SDS_P1;SDS_P2;PMS_P1;PMS_P2;Temp;Humidity;BMP_temperature;BMP_pressure;BME280_temperature;BME280_humidity;BME280_pressure;Samples;Min_cycle;Max_cycle;Signal;HPM_P1;HPM_P2
2022/05/31 00:01:51;;;;;;;;;1.00;1.00;;;;;17.15;37.55;100548.34;4975566;28;45795;-56
2022/05/31 00:04:17;;;;;;;;;2.00;2.00;;;;;17.00;37.49;100530.44;4978821;28;45850;-55
2022/05/31 00:06:43;;;;;;;;;2.80;2.80;;;;;17.12;37.89;100560.81;4970366;28;45920;-55
2022/05/31 00:09:08;;;;;;;;;2.00;2.00;;;;;17.15;37.68;100562.22;4971476;28;46183;-56
2022/05/31 00:11:35;;;;;;;;;1.75;1.75;;;;;17.06;37.99;100550.75;4954010;28;45646;-55
2022/05/31 00:14:01;;;;;;;;;2.00;2.00;;;;;16.96;37.89;100520.13;4970294;28;45451;-54
2022/05/31 00:16:27;;;;;;;;;2.00;2.00;;;;;17.13;37.66;100568.00;4968833;28;45532;-53
2022/05/31 00:18:52;;;;;;;;;2.75;2.75;;;;;17.12;38.17;100554.44;4974103;28;45511;-57
2022/05/31 00:21:18;;;;;;;;;3.00;3.00;;;;;17.10;37.82;100554.69;4990412;28;45435;-55
2022/05/31 00:23:43;;;;;;;;;4.00;3.50;;;;;17.05;37.35;100540.75;4990311;28;45659;-53
2022/05/31 00:26:09;;;;;;;;;4.50;2.50;;;;;16.98;37.49;100540.94;4965823;28;45559;-54
2022/05/31 00:28:35;;;;;;;;;5.75;5.00;;;;;17.00;37.79;100541.53;4974989;28;45792;-50
2022/05/31 00:31:00;;;;;;;;;5.00;5.00;;;;;16.90;37.79;100533.06;4994964;28;45417;-51
2022/05/31 00:33:26;;;;;;;;;4.00;3.00;;;;;17.06;37.93;100556.28;5009415;28;45379;-52
2022/05/31 00:35:53;;;;;;;;;2.75;2.25;;;;;17.05;37.90;100558.25;5026661;28;45307;-51
2022/05/31 00:38:19;;;;;;;;;4.20;3.60;;;;;17.03;38.14;100557.66;4994476;28;45692;-50
2022/05/31 00:40:45;;;;;;;;;2.00;2.00;;;;;16.94;38.22;100548.94;4996818;28;45966;-49
2022/05/31 00:43:16;;;;;;;;;4.75;3.75;;;;;16.81;38.41;100535.47;4998508;28;45378;-50
2022/05/31 00:45:56;;;;;;;;;3.00;2.00;;;;;16.75;38.46;100534.56;4998131;28;45207;-52
2022/05/31 00:48:32;;;;;;;;;3.00;3.00;;;;;16.55;38.53;100496.38;4998531;28;45459;-54
2022/05/31 00:51:00;;;;;;;;;3.00;3.00;;;;;16.79;38.52;100551.53;4998279;28;45429;-52
2022/05/31 00:53:31;;;;;;;;;3.20;3.20;;;;;16.80;38.70;100558.72;5029791;28;45405;-54
2022/05/31 00:56:02;;;;;;;;;3.00;3.00;;;;;16.77;38.78;100545.41;4997214;28;45429;-53
2022/05/31 00:58:58;;;;;;;;;3.00;2.80;;;;;16.85;38.88;100560.75;4997125;28;45624;-54
2022/05/31 01:01:24;;;;;;;;;3.20;3.00;;;;;16.82;38.80;100556.56;4996807;28;45459;-51
2022/05/31 01:03:50;;;;;;;;;2.00;2.00;;;;;16.61;38.70;100520.28;4994456;28;45306;-54
2022/05/31 01:06:15;;;;;;;;;4.25;3.75;;;;;16.83;38.68;100554.59;4978588;28;45511;-53
2022/05/31 01:08:45;;;;;;;;;3.25;2.75;;;;;16.88;38.62;100555.53;4978421;28;46590;-54
2022/05/31 01:11:20;;;;;;;;;3.00;3.00;;;;;16.87;38.60;100545.50;4978090;28;45190;-50
2022/05/31 01:13:46;;;;;;;;;4.00;2.20;;;;;16.63;38.75;100520.00;4977367;28;45451;-50
2022/05/31 01:16:12;;;;;;;;;3.75;3.75;;;;;16.70;38.98;100537.28;4976876;28;45714;-49
2022/05/31 01:18:38;;;;;;;;;1.80;1.80;;;;;16.81;39.13;100546.53;4978283;28;46885;-51
2022/05/31 01:21:04;;;;;;;;;2.00;2.00;;;;;16.37;39.08;100479.00;4977685;28;45736;-50
2022/05/31 01:23:37;;;;;;;;;2.00;2.00;;;;;16.70;38.74;100533.69;4976880;28;45431;-50
2022/05/31 01:26:17;;;;;;;;;3.00;3.00;;;;;16.79;39.02;100546.84;4974513;28;45494;-58
2022/05/31 01:29:07;;;;;;;;;2.20;2.00;;;;;16.86;38.66;100543.03;4994409;28;46115;-52
2022/05/31 01:31:45;;;;;;;;;1.00;1.00;;;;;16.77;38.45;100535.16;4996682;28;45477;-51
2022/05/31 01:34:19;;;;;;;;;2.00;2.00;;;;;16.66;38.81;100514.78;4997191;28;45345;-50
2022/05/31 01:36:47;;;;;;;;;2.00;2.00;;;;;16.64;38.52;100510.59;4997770;28;45369;-53
2022/05/31 01:39:34;;;;;;;;;1.00;1.00;;;;;16.64;38.61;100513.38;4997158;28;46717;-51
2022/05/31 01:42:42;;;;;;;;;1.00;1.00;;;;;16.78;38.65;100542.38;4997254;28;45387;-54
2022/05/31 01:45:21;;;;;;;;;3.00;1.60;;;;;16.70;38.90;100542.00;4978244;28;45358;-53
2022/05/31 01:47:46;;;;;;;;;2.00;1.80;;;;;16.55;38.98;100531.56;4994961;28;45423;-51
2022/05/31 01:50:13;;;;;;;;;3.50;2.75;;;;;16.62;38.84;100541.34;4996553;28;46436;-53
2022/05/31 01:52:39;;;;;;;;;1.80;1.80;;;;;16.67;38.75;100537.81;5012361;28;45373;-54
2022/05/31 01:55:04;;;;;;;;;1.50;1.50;;;;;16.65;38.95;100538.06;4996103;28;45397;-53
2022/05/31 01:57:30;;;;;;;;;0.00;0.00;;;;;16.67;38.60;100532.28;5012521;28;45497;-51
2022/05/31 02:00:11;;;;;;;;;1.00;1.00;;;;;16.69;38.50;100530.06;5029069;28;46517;-51
2022/05/31 02:02:36;;;;;;;;;1.00;1.00;;;;;16.41;38.63;100495.94;4989061;28;45948;-56
2022/05/31 02:05:02;;;;;;;;;1.75;1.75;;;;;16.69;38.97;100552.22;4976370;28;45491;-52
2022/05/31 02:07:28;;;;;;;;;1.75;1.75;;;;;16.52;38.66;100546.75;4976060;28;45480;-48
2022/05/31 02:09:54;;;;;;;;;3.00;1.25;;;;;16.59;39.07;100546.59;4977209;28;45709;-50
2022/05/31 02:12:20;;;;;;;;;2.40;2.00;;;;;16.58;38.73;100551.28;4976969;28;45331;-53
2022/05/31 02:14:46;;;;;;;;;2.00;1.80;;;;;16.65;38.66;100551.09;4977560;28;45337;-50
2022/05/31 02:17:11;;;;;;;;;1.75;1.75;;;;;16.69;38.57;100545.88;4977439;28;45303;-54
2022/05/31 02:19:37;;;;;;;;;1.75;1.75;;;;;16.73;38.73;100547.88;4977149;28;46516;-54
2022/05/31 02:22:05;;;;;;;;;4.00;3.25;;;;;16.66;38.72;100550.00;4976869;28;45645;-52
2022/05/31 02:24:30;;;;;;;;;3.80;1.80;;;;;16.66;38.57;100547.22;4975759;28;45413;-52
2022/05/31 02:26:56;;;;;;;;;1.75;1.75;;;;;16.44;38.80;100511.19;4977194;28;45355;-49
2022/05/31 02:29:26;;;;;;;;;2.00;2.00;;;;;16.63;38.94;100542.19;4976744;28;46442;-51
2022/05/31 02:31:52;;;;;;;;;2.00;2.00;;;;;16.69;38.67;100551.41;4975913;28;45428;-54
2022/05/31 02:34:20;;;;;;;;;2.50;2.50;;;;;16.67;39.05;100544.16;4975807;28;45344;-53
2022/05/31 02:36:46;;;;;;;;;1.80;1.80;;;;;16.74;39.01;100552.31;4975925;28;45647;-51
2022/05/31 02:39:12;;;;;;;;;2.00;2.00;;;;;16.79;38.46;100554.28;4977083;28;46842;-50
2022/05/31 02:41:38;;;;;;;;;0.00;0.00;;;;;16.80;38.39;100551.28;4976908;28;45314;-50
2022/05/31 02:44:04;;;;;;;;;2.00;2.00;;;;;16.86;38.28;100554.94;4977204;28;45343;-48
2022/05/31 02:46:29;;;;;;;;;2.20;2.20;;;;;16.85;38.35;100555.22;4975541;28;45412;-53
2022/05/31 02:48:55;;;;;;;;;2.00;2.00;;;;;16.77;38.31;100537.91;4977182;28;45365;-53
2022/05/31 02:51:20;;;;;;;;;1.25;1.25;;;;;16.83;38.25;100547.16;4976907;28;45330;-53
2022/05/31 02:53:46;;;;;;;;;2.00;2.00;;;;;16.77;38.17;100535.16;4976857;28;45429;-51
2022/05/31 02:56:11;;;;;;;;;5.75;2.75;;;;;16.83;38.44;100546.28;4977474;28;45600;-48
2022/05/31 02:58:37;;;;;;;;;2.00;2.00;;;;;16.86;38.25;100535.53;4976409;28;46501;-55
2022/05/31 03:01:23;;;;;;;;;3.50;2.00;;;;;16.74;38.31;100529.28;4976437;28;45304;-54
2022/05/31 03:03:49;;;;;;;;;3.80;3.80;;;;;16.68;38.45;100525.63;4992563;28;45365;-52
2022/05/31 03:06:14;;;;;;;;;3.00;2.00;;;;;16.48;38.79;100490.19;4996685;28;45410;-51
2022/05/31 03:08:41;;;;;;;;;2.00;2.00;;;;;16.69;38.50;100530.06;4996073;28;45698;-50
2022/05/31 03:11:08;;;;;;;;;2.40;2.40;;;;;16.69;38.51;100530.06;4996447;28;45369;-51
2022/05/31 03:13:34;;;;;;;;;2.20;1.60;;;;;16.51;39.00;100506.31;4978443;28;45285;-53
2022/05/31 03:16:00;;;;;;;;;1.75;1.75;;;;;16.79;38.42;100548.75;4995475;28;45771;-51
2022/05/31 03:18:28;;;;;;;;;2.20;1.00;;;;;16.78;38.51;100550.69;4996148;28;45724;-52
2022/05/31 03:20:55;;;;;;;;;2.00;2.00;;;;;16.78;38.54;100547.06;4985807;28;45488;-49
2022/05/31 03:23:30;;;;;;;;;1.60;1.60;;;;;16.73;38.68;100553.41;4969786;28;45818;-50
2022/05/31 03:25:55;;;;;;;;;2.00;2.00;;;;;16.65;38.54;100546.38;4957268;28;45411;-50
2022/05/31 03:28:21;;;;;;;;;2.75;2.50;;;;;16.43;38.63;100509.53;4976315;28;46679;-54
2022/05/31 03:30:47;;;;;;;;;2.00;2.00;;;;;16.65;39.29;100540.00;4973632;28;45390;-51
2022/05/31 03:33:12;;;;;;;;;6.00;2.75;;;;;16.51;39.43;100507.16;4957779;28;45405;-49
2022/05/31 03:35:38;;;;;;;;;4.75;3.00;;;;;16.58;39.93;100526.34;4954693;28;45545;-49
2022/05/31 03:38:04;;;;;;;;;5.00;5.00;;;;;16.68;40.59;100545.03;4955986;28;48032;-51
2022/05/31 03:43:13;;;;;;;;;5.00;4.00;;;;;16.66;41.52;100547.22;4975997;28;45390;-50
2022/05/31 03:45:40;;;;;;;;;6.50;5.50;;;;;16.59;41.42;100541.03;4973622;28;45556;-51
2022/05/31 03:48:05;;;;;;;;;5.00;4.00;;;;;16.59;42.08;100552.94;4975585;28;46731;-54
2022/05/31 03:50:31;;;;;;;;;4.25;4.25;;;;;16.57;42.12;100554.28;4974840;28;45378;-52
2022/05/31 03:52:57;;;;;;;;;4.50;4.50;;;;;16.38;42.72;100526.88;4975845;28;45391;-47
2022/05/31 03:55:22;;;;;;;;;6.00;4.25;;;;;16.46;43.03;100548.63;4976209;28;45645;-53
2022/05/31 03:57:48;;;;;;;;;5.50;5.50;;;;;16.40;43.35;100546.88;4975611;28;47009;-49
2022/05/31 04:00:14;;;;;;;;;3.75;3.75;;;;;16.46;43.27;100547.78;4974399;28;45448;-53
2022/05/31 04:02:40;;;;;;;;;6.60;6.00;;;;;16.43;43.74;100543.59;4979663;28;45255;-54
2022/05/31 04:05:06;;;;;;;;;4.25;4.25;;;;;16.42;44.02;100539.16;4995584;28;45330;-50
2022/05/31 04:07:31;;;;;;;;;6.20;5.20;;;;;16.44;44.00;100545.25;4995115;28;47709;-50
2022/05/31 04:09:57;;;;;;;;;5.50;5.00;;;;;16.44;43.91;100538.91;4995364;28;45396;-53
2022/05/31 04:12:22;;;;;;;;;6.75;4.50;;;;;16.38;44.01;100524.97;4995337;28;45423;-52
2022/05/31 04:14:48;;;;;;;;;5.50;5.50;;;;;16.28;43.81;100508.22;4998923;28;45373;-52
2022/05/31 04:17:13;;;;;;;;;6.00;6.00;;;;;16.44;43.45;100544.44;4998438;28;46689;-48
2022/05/31 04:19:39;;;;;;;;;5.00;4.75;;;;;16.44;43.89;100538.91;5014301;28;45343;-48
2022/05/31 04:22:04;;;;;;;;;6.75;5.75;;;;;16.36;43.71;100527.16;4998697;28;45387;-50
2022/05/31 04:24:30;;;;;;;;;7.25;5.00;;;;;16.28;43.85;100530.38;4998625;28;45387;-50
2022/05/31 04:26:55;;;;;;;;;4.75;4.00;;;;;16.25;43.59;100541.97;4998681;28;45648;-52
2022/05/31 04:29:21;;;;;;;;;5.00;3.00;;;;;16.22;43.21;100528.63;4998101;28;45161;-47
2022/05/31 04:31:48;;;;;;;;;8.75;4.75;;;;;16.09;42.91;100503.00;4997466;28;45375;-49
2022/05/31 04:34:14;;;;;;;;;5.40;5.40;;;;;16.34;43.07;100528.53;4998392;28;45437;-51
2022/05/31 04:36:39;;;;;;;;;5.00;5.00;;;;;16.39;43.12;100534.13;4998449;28;45586;-53
2022/05/31 04:39:05;;;;;;;;;6.50;5.00;;;;;15.95;43.28;100474.81;4998429;28;45499;-50
2022/05/31 04:41:30;;;;;;;;;7.00;5.00;;;;;16.37;43.13;100526.06;4998688;28;45433;-48
2022/05/31 04:43:57;;;;;;;;;5.25;5.25;;;;;16.20;43.39;100503.97;4997759;28;45334;-49
2022/05/31 04:46:24;;;;;;;;;7.00;6.00;;;;;16.43;43.60;100548.31;4998006;28;45775;-49
2022/05/31 04:48:51;;;;;;;;;7.00;6.60;;;;;16.26;43.68;100515.94;4998696;28;45298;-51
2022/05/31 04:51:17;;;;;;;;;4.80;4.80;;;;;16.41;43.66;100556.84;4997222;28;45367;-53
2022/05/31 04:53:42;;;;;;;;;6.50;6.00;;;;;16.40;43.96;100558.78;4998536;28;45528;-52
2022/05/31 04:56:10;;;;;;;;;5.00;5.00;;;;;16.20;44.55;100526.13;4998378;28;46500;-53
2022/05/31 04:58:36;;;;;;;;;5.00;5.00;;;;;16.35;44.58;100542.13;4998165;28;45458;-53
2022/05/31 05:01:01;;;;;;;;;6.00;6.00;;;;;16.41;44.85;100551.31;4998553;28;45356;-52
2022/05/31 05:03:30;;;;;;;;;6.00;6.00;;;;;16.34;45.04;100548.72;4986875;28;45351;-54
2022/05/31 05:06:02;;;;;;;;;7.60;7.00;;;;;16.37;44.92;100561.22;4977283;28;45978;-52
2022/05/31 05:08:28;;;;;;;;;5.40;5.40;;;;;16.35;45.10;100567.03;4977063;28;45774;-53
2022/05/31 05:10:53;;;;;;;;;4.00;4.00;;;;;16.33;45.12;100558.13;4977541;28;45276;-53
2022/05/31 05:13:19;;;;;;;;;5.50;5.50;;;;;16.29;45.16;100548.69;4978781;28;45767;-56
2022/05/31 05:15:44;;;;;;;;;8.25;6.50;;;;;16.10;45.33;100521.28;4977130;28;46182;-55
2022/05/31 05:18:10;;;;;;;;;6.50;5.00;;;;;16.16;45.06;100540.72;4978587;28;45328;-54
2022/05/31 05:20:37;;;;;;;;;5.00;5.00;;;;;16.32;45.42;100573.06;4978438;28;45304;-50
2022/05/31 05:23:04;;;;;;;;;6.20;6.00;;;;;16.26;45.31;100568.56;4977328;28;45589;-55
2022/05/31 05:25:30;;;;;;;;;6.00;6.00;;;;;16.20;45.39;100556.56;4977150;28;46323;-50
2022/05/31 05:27:55;;;;;;;;;5.25;5.25;;;;;16.27;45.67;100578.53;4978407;28;45776;-52
2022/05/31 05:30:39;;;;;;;;;7.25;5.75;;;;;16.30;45.40;100572.50;4978235;28;45373;-53
2022/05/31 05:33:04;;;;;;;;;5.00;5.00;;;;;16.33;45.38;100571.97;4978675;28;45320;-53
2022/05/31 05:35:30;;;;;;;;;5.75;5.75;;;;;16.29;45.39;100576.38;4977952;28;46062;-53
2022/05/31 05:37:55;;;;;;;;;7.50;7.25;;;;;16.31;45.49;100570.56;4977654;28;45502;-53
2022/05/31 05:40:21;;;;;;;;;6.00;6.00;;;;;15.71;45.50;100469.44;4960133;28;45377;-56
2022/05/31 05:42:46;;;;;;;;;9.00;7.00;;;;;16.47;45.00;100582.69;4977762;28;45426;-53
2022/05/31 05:45:12;;;;;;;;;6.00;6.00;;;;;16.29;45.02;100553.34;4977548;28;46529;-53
2022/05/31 05:47:37;;;;;;;;;6.25;6.25;;;;;16.51;44.88;100579.19;4977714;28;45397;-54
2022/05/31 05:50:04;;;;;;;;;7.25;6.00;;;;;16.52;44.92;100586.38;4976299;28;45391;-54
2022/05/31 05:52:29;;;;;;;;;8.60;7.00;;;;;16.57;44.71;100593.91;4977776;28;45493;-56
2022/05/31 05:54:54;;;;;;;;;6.50;6.50;;;;;16.37;45.36;100553.78;4977341;28;46481;-52
2022/05/31 05:57:20;;;;;;;;;6.50;6.25;;;;;16.62;44.69;100590.38;4977620;28;45384;-53
2022/05/31 05:59:45;;;;;;;;;6.00;6.00;;;;;16.66;44.79;100605.41;4977209;28;45426;-55
2022/05/31 06:02:24;;;;;;;;;10.75;6.50;;;;;16.49;44.87;100574.97;4978452;28;45212;-52
2022/05/31 06:04:52;;;;;;;;;8.20;6.60;;;;;16.69;44.72;100607.66;5028053;28;46674;-54
2022/05/31 06:07:23;;;;;;;;;5.40;5.40;;;;;16.38;44.79;100558.22;5028472;28;45409;-54
2022/05/31 06:09:52;;;;;;;;;6.20;5.80;;;;;16.63;44.90;100603.13;4996733;28;45350;-56
2022/05/31 06:12:20;;;;;;;;;6.00;5.20;;;;;16.67;44.48;100590.47;4997040;28;45401;-51
2022/05/31 06:14:57;;;;;;;;;9.00;8.20;;;;;16.71;43.94;100582.47;4995259;28;46031;-55
2022/05/31 06:17:24;;;;;;;;;7.60;7.00;;;;;16.80;44.11;100594.75;5027672;28;45416;-50
2022/05/31 06:19:51;;;;;;;;;7.40;7.40;;;;;16.76;44.44;100593.63;5028445;28;45429;-57
2022/05/31 06:22:17;;;;;;;;;8.60;7.40;;;;;16.70;43.95;100578.03;5028933;28;45589;-53
2022/05/31 06:24:43;;;;;;;;;6.00;6.00;;;;;16.90;43.96;100603.22;5028426;28;46236;-52
2022/05/31 06:27:08;;;;;;;;;8.75;6.50;;;;;16.63;43.83;100553.25;5011780;28;45440;-53
2022/05/31 06:29:34;;;;;;;;;7.25;6.50;;;;;16.84;43.81;100595.94;5028765;28;45354;-53
2022/05/31 06:31:59;;;;;;;;;10.00;7.25;;;;;16.87;43.92;100586.28;4996573;28;45605;-56
2022/05/31 06:34:25;;;;;;;;;5.25;5.25;;;;;17.04;43.96;100594.53;4996490;28;45421;-54
2022/05/31 06:37:07;;;;;;;;;8.00;7.00;;;;;17.08;43.52;100601.25;4996774;28;45614;-51
2022/05/31 06:39:37;;;;;;;;;8.80;7.80;;;;;17.22;43.50;100611.94;4996727;28;45713;-53
2022/05/31 06:42:03;;;;;;;;;6.80;6.80;;;;;17.26;43.12;100605.63;4996573;28;45504;-54
2022/05/31 06:44:33;;;;;;;;;8.40;6.80;;;;;17.30;43.25;100603.97;5027938;28;46919;-56
2022/05/31 06:46:59;;;;;;;;;7.60;7.60;;;;;17.11;43.07;100580.47;4996152;28;45322;-53
2022/05/31 06:49:24;;;;;;;;;9.25;7.75;;;;;17.29;42.87;100610.63;4996614;28;45231;-54
2022/05/31 06:57:18;;;;;;;;;9.00;8.00;;;;;17.40;43.03;100611.56;4980352;28;45557;-53
2022/05/31 06:59:44;;;;;;;;;7.25;7.00;;;;;17.41;42.96;100610.50;4965678;28;45855;-52
2022/05/31 07:02:10;;;;;;;;;7.50;7.50;;;;;17.35;42.40;100600.44;4975624;28;45349;-52
2022/05/31 07:04:35;;;;;;;;;5.50;5.50;;;;;17.43;42.46;100605.50;4993059;28;46019;-56
2022/05/31 07:07:01;;;;;;;;;7.00;7.00;;;;;17.36;42.47;100599.34;4995809;28;45400;-53
2022/05/31 07:09:28;;;;;;;;;7.40;7.40;;;;;17.53;42.53;100617.81;4995688;28;45433;-52
2022/05/31 07:11:57;;;;;;;;;7.75;6.00;;;;;17.55;42.28;100612.84;4994046;28;45359;-54
2022/05/31 07:14:25;;;;;;;;;4.40;3.80;;;;;17.57;42.43;100611.47;4975088;28;45835;-54
2022/05/31 07:16:51;;;;;;;;;7.80;6.80;;;;;17.56;42.25;100614.53;4975105;28;45317;-50
2022/05/31 07:19:16;;;;;;;;;9.00;8.00;;;;;17.57;41.86;100607.88;4976350;28;45397;-55
2022/05/31 07:21:42;;;;;;;;;7.00;7.00;;;;;17.55;41.99;100605.34;4976781;28;45295;-51
2022/05/31 07:24:07;;;;;;;;;6.00;6.00;;;;;17.55;42.02;100613.66;4976006;28;45605;-49
2022/05/31 07:26:33;;;;;;;;;5.25;5.25;;;;;17.61;41.43;100623.72;4974649;28;45405;-55
2022/05/31 07:28:58;;;;;;;;;8.25;6.50;;;;;17.48;41.36;100616.66;4976649;28;45266;-53
2022/05/31 07:31:24;;;;;;;;;7.00;7.00;;;;;17.49;41.70;100611.94;4976301;28;46080;-51
2022/05/31 07:33:49;;;;;;;;;5.25;5.25;;;;;17.52;41.44;100607.81;4976309;28;46041;-48
2022/05/31 07:36:15;;;;;;;;;7.00;5.00;;;;;17.63;40.80;100620.69;4976066;28;45446;-53
2022/05/31 07:38:41;;;;;;;;;8.50;6.00;;;;;17.58;41.01;100618.72;4974792;28;45410;-50
2022/05/31 07:41:07;;;;;;;;;5.60;4.80;;;;;17.57;40.79;100621.75;4976388;28;45599;-50
2022/05/31 07:43:33;;;;;;;;;6.40;5.80;;;;;17.58;40.82;100623.41;4974455;28;46504;-54
2022/05/31 07:46:05;;;;;;;;;10.00;7.75;;;;;17.13;40.39;100551.38;4970656;28;45404;-49
2022/05/31 07:48:33;;;;;;;;;6.00;6.00;;;;;17.58;40.38;100613.16;4969199;28;45426;-48
2022/05/31 07:50:58;;;;;;;;;5.00;5.00;;;;;17.63;40.03;100626.25;4976586;28;45761;-49
2022/05/31 07:53:24;;;;;;;;;8.75;5.50;;;;;17.68;39.79;100623.53;4991952;28;45689;-51
2022/05/31 07:56:00;;;;;;;;;5.00;5.00;;;;;17.60;39.94;100599.00;4998062;28;45318;-50
2022/05/31 07:58:32;;;;;;;;;6.20;5.00;;;;;17.85;39.93;100626.19;4998154;28;45460;-51
2022/05/31 08:01:01;;;;;;;;;6.80;6.80;;;;;17.91;40.24;100635.38;4959614;28;45522;-54
2022/05/31 08:03:26;;;;;;;;;6.60;5.20;;;;;17.91;39.91;100620.66;4980254;28;46483;-50
2022/05/31 08:05:53;;;;;;;;;7.00;6.00;;;;;17.88;39.90;100617.31;4981151;28;45502;-51
2022/05/31 08:08:19;;;;;;;;;8.00;6.00;;;;;17.94;39.85;100631.25;4977905;28;45901;-49
2022/05/31 08:10:44;;;;;;;;;7.00;5.50;;;;;17.92;39.81;100625.13;4977812;28;45597;-50
2022/05/31 08:13:10;;;;;;;;;5.00;5.00;;;;;18.00;39.84;100631.00;4975794;28;45470;-50
2022/05/31 08:15:35;;;;;;;;;6.00;5.00;;;;;18.00;39.66;100619.91;4977945;28;45429;-49
2022/05/31 08:18:01;;;;;;;;;6.00;6.00;;;;;18.00;39.94;100630.19;4978494;28;45480;-50
2022/05/31 08:20:27;;;;;;;;;5.75;5.75;;;;;17.96;40.00;100616.00;4978497;28;45401;-53
2022/05/31 08:22:52;;;;;;;;;6.00;4.50;;;;;17.96;39.96;100604.88;4977041;28;45496;-49
2022/05/31 08:25:18;;;;;;;;;6.25;6.25;;;;;18.12;40.50;100633.66;4977225;28;45398;-50
2022/05/31 08:27:43;;;;;;;;;8.00;5.00;;;;;18.06;40.21;100618.03;4991362;28;45915;-51
2022/05/31 08:30:09;;;;;;;;;9.00;5.75;;;;;18.17;40.38;100618.97;4978215;28;45307;-52
2022/05/31 08:32:35;;;;;;;;;5.50;5.50;;;;;18.10;40.25;100602.50;4976275;28;46859;-50
2022/05/31 08:35:00;;;;;;;;;8.00;5.25;;;;;18.17;40.23;100615.31;4977670;28;45237;-50
2022/05/31 08:37:27;;;;;;;;;2.50;2.50;;;;;18.21;39.76;100625.66;4975263;28;45344;-49
2022/05/31 08:39:52;;;;;;;;;6.40;5.00;;;;;18.18;39.76;100609.50;4978853;28;45369;-48
2022/05/31 08:42:25;;;;;;;;;5.25;4.25;;;;;18.22;39.80;100632.03;4978625;28;46865;-48
2022/05/31 08:44:54;;;;;;;;;6.60;5.00;;;;;18.22;39.71;100620.94;4977096;28;45575;-52
2022/05/31 08:47:42;;;;;;;;;6.60;4.40;;;;;18.06;39.27;100593.06;4977348;28;45447;-49
2022/05/31 08:53:06;;;;;;;;;5.20;3.60;;;;;18.33;38.58;100619.91;4978007;28;45375;-53
2022/05/31 08:58:43;;;;;;;;;3.00;2.00;;;;;18.49;38.88;100623.63;4978170;28;45398;-50
2022/05/31 09:01:09;;;;;;;;;5.80;3.80;;;;;18.58;38.37;100623.09;4955931;28;45487;-53
2022/05/31 09:03:36;;;;;;;;;12.80;9.00;;;;;18.62;37.65;100624.25;4980544;28;46067;-53
2022/05/31 09:06:07;;;;;;;;;3.40;3.00;;;;;18.62;37.18;100616.75;5029515;28;45426;-50
2022/05/31 09:08:36;;;;;;;;;5.80;3.00;;;;;18.72;36.62;100621.50;4996929;28;45391;-50
2022/05/31 09:11:28;;;;;;;;;9.80;5.80;;;;;18.69;37.10;100614.56;4997941;28;45564;-50
2022/05/31 09:14:19;;;;;;;;;9.60;6.00;;;;;18.77;36.81;100620.69;4993096;28;49929;-49
2022/05/31 09:16:47;;;;;;;;;6.40;4.00;;;;;18.85;35.97;100625.75;4976110;28;45552;-54
2022/05/31 09:19:21;;;;;;;;;4.00;4.00;;;;;18.83;37.26;100611.28;4978371;28;45403;-51
2022/05/31 09:21:48;;;;;;;;;5.00;3.20;;;;;18.95;36.14;100617.44;4976982;28;45502;-49
2022/05/31 09:24:15;;;;;;;;;7.40;5.00;;;;;18.77;36.39;100620.69;4976353;28;46949;-51
2022/05/31 09:26:40;;;;;;;;;3.80;3.60;;;;;18.87;37.17;100626.31;4959646;28;45466;-52
2022/05/31 09:29:15;;;;;;;;;6.50;5.00;;;;;18.98;36.93;100629.16;4978144;28;45301;-55
2022/05/31 09:31:53;;;;;;;;;7.80;4.40;;;;;19.03;37.12;100618.91;4978108;28;45402;-54
2022/05/31 09:34:22;;;;;;;;;4.40;4.40;;;;;19.19;36.85;100624.53;4976501;28;46828;-52
2022/05/31 09:37:13;;;;;;;;;4.00;4.00;;;;;19.25;35.63;100626.22;4977681;28;45388;-52
2022/05/31 09:40:00;;;;;;;;;5.00;3.80;;;;;19.39;35.37;100626.53;4976502;28;45375;-50
2022/05/31 09:42:29;;;;;;;;;3.40;3.40;;;;;19.53;34.74;100620.44;4970873;28;45417;-52
2022/05/31 09:45:05;;;;;;;;;4.00;4.00;;;;;19.62;34.65;100608.50;4977750;28;45833;-48
2022/05/31 09:47:31;;;;;;;;;3.80;3.80;;;;;19.76;34.56;100613.53;4976117;28;45679;-51
2022/05/31 09:49:56;;;;;;;;;5.50;3.25;;;;;19.71;34.97;100605.16;5028051;28;45349;-50
2022/05/31 09:52:42;;;;;;;;;4.00;3.00;;;;;19.58;34.73;100582.31;4976088;28;45260;-54
2022/05/31 09:58:08;;;;;;;;;4.20;3.00;;;;;19.66;34.72;100600.44;4976051;28;45362;-50
2022/05/31 10:00:34;;;;;;;;;3.00;3.00;;;;;19.66;33.75;100611.56;4983137;28;45471;-51
2022/05/31 10:03:11;;;;;;;;;4.40;2.80;;;;;19.55;34.12;100596.81;4987260;28;45643;-52
2022/05/31 10:05:38;;;;;;;;;2.60;2.60;;;;;19.60;34.06;100598.75;4994976;28;45885;-52
2022/05/31 10:08:17;;;;;;;;;5.60;3.00;;;;;19.40;33.35;100578.13;4996915;28;45368;-48
2022/05/31 10:10:48;;;;;;;;;2.40;2.40;;;;;19.57;32.96;100614.06;5010359;28;45357;-55
2022/05/31 10:13:13;;;;;;;;;3.00;3.00;;;;;19.59;33.07;100614.59;5005929;28;45823;-50
2022/05/31 10:15:42;;;;;;;;;2.00;2.00;;;;;19.49;31.75;100586.78;4983067;28;47021;-47
2022/05/31 10:18:10;;;;;;;;;3.60;3.20;;;;;19.60;31.12;100618.22;4975877;28;45528;-51
2022/05/31 10:20:36;;;;;;;;;2.00;2.00;;;;;19.61;32.19;100601.25;4988062;28;45601;-52
2022/05/31 10:23:06;;;;;;;;;3.75;3.75;;;;;19.63;31.69;100582.31;4969291;28;45801;-54
2022/05/31 10:25:39;;;;;;;;;1.40;1.40;;;;;19.49;31.90;100547.81;4974976;28;45495;-53
2022/05/31 10:28:11;;;;;;;;;4.40;4.40;;;;;19.84;32.15;100599.03;4976648;28;45398;-55
2022/05/31 10:30:36;;;;;;;;;1.80;1.80;;;;;19.80;31.94;100613.81;4975698;28;45308;-51
2022/05/31 10:33:21;;;;;;;;;3.00;2.00;;;;;19.61;32.97;100595.69;4977145;28;45712;-52
2022/05/31 10:35:46;;;;;;;;;3.40;3.40;;;;;19.44;32.56;100572.84;4959327;28;45619;-51
2022/05/31 10:38:24;;;;;;;;;3.00;3.00;;;;;19.70;32.87;100614.63;4959479;28;45510;-53
2022/05/31 10:41:05;;;;;;;;;3.60;3.60;;;;;19.49;32.49;100570.06;4977267;28;45260;-54
2022/05/31 10:43:34;;;;;;;;;4.60;3.00;;;;;19.89;32.53;100615.75;4977126;28;45598;-59
2022/05/31 10:46:07;;;;;;;;;3.00;3.00;;;;;19.99;32.03;100609.38;4976750;28;46125;-56
2022/05/31 10:48:32;;;;;;;;;2.20;2.20;;;;;19.96;31.77;100575.69;4975871;28;45461;-54
2022/05/31 10:51:09;;;;;;;;;3.75;3.00;;;;;20.34;31.51;100606.84;4977182;28;45342;-51
2022/05/31 10:53:59;;;;;;;;;2.80;2.80;;;;;20.40;31.43;100621.59;4959808;28;45321;-58
2022/05/31 10:56:38;;;;;;;;;3.80;3.80;;;;;20.39;31.80;100614.34;4960575;28;45983;-54
2022/05/31 10:59:05;;;;;;;;;2.40;2.40;;;;;20.22;31.57;100584.00;4953385;28;45541;-55
2022/05/31 11:01:43;;;;;;;;;3.40;3.00;;;;;20.42;32.01;100614.63;4955597;28;45875;-57
2022/05/31 11:04:27;;;;;;;;;5.40;5.40;;;;;20.38;31.83;100607.94;4966086;28;45532;-51
2022/05/31 11:07:15;;;;;;;;;3.00;2.20;;;;;20.28;31.04;100594.03;5007453;28;45840;-56
2022/05/31 11:12:46;;;;;;;;;3.00;3.00;;;;;20.55;30.85;100621.56;4971964;28;45922;-55
2022/05/31 11:15:18;;;;;;;;;2.00;2.00;;;;;20.67;30.52;100621.25;4970487;28;45426;-54
2022/05/31 11:17:48;;;;;;;;;4.00;4.00;;;;;20.72;31.11;100610.06;4975146;28;46284;-58
2022/05/31 11:20:33;;;;;;;;;3.80;3.80;;;;;20.63;31.09;100622.09;4992397;28;45431;-60
2022/05/31 11:23:21;;;;;;;;;2.00;2.00;;;;;20.45;31.76;100627.16;4985228;28;45391;-55
2022/05/31 11:26:04;;;;;;;;;2.80;2.80;;;;;20.43;32.20;100619.06;4958576;28;46057;-55
2022/05/31 11:29:10;;;;;;;;;5.60;4.20;;;;;20.36;32.36;100621.31;4968103;28;45791;-54
2022/05/31 11:31:56;;;;;;;;;3.60;3.60;;;;;20.42;32.27;100624.94;4978385;28;45520;-56
2022/05/31 11:34:54;;;;;;;;;2.80;2.80;;;;;20.33;31.79;100612.69;4988513;28;46010;-57
2022/05/31 11:37:24;;;;;;;;;2.00;2.00;;;;;20.33;31.00;100615.47;4952608;28;45518;-55
2022/05/31 11:40:10;;;;;;;;;3.00;3.00;;;;;20.27;30.91;100600.72;4969772;28;46884;-58
2022/05/31 11:43:04;;;;;;;;;5.20;5.20;;;;;20.40;31.20;100627.16;4967297;28;45375;-57
2022/05/31 11:45:35;;;;;;;;;1.60;1.60;;;;;20.44;31.64;100626.31;5000932;28;45762;-52
2022/05/31 11:48:06;;;;;;;;;5.80;4.80;;;;;20.40;31.49;100632.75;4983522;28;45474;-58
2022/05/31 11:50:50;;;;;;;;;3.40;3.40;;;;;20.40;31.96;100628.00;4974989;28;45498;-52
2022/05/31 11:53:46;;;;;;;;;3.20;3.20;;;;;20.41;32.22;100628.84;4975737;28;45494;-54
2022/05/31 11:56:23;;;;;;;;;3.20;3.20;;;;;20.44;32.14;100626.31;4970608;28;46090;-51